createdAt,value
2023-01-21T00:00:31.181Z,21.9
2023-01-21T00:01:33.738Z,21.8
2023-01-21T00:02:36.277Z,21.7
2023-01-21T00:03:39.295Z,21.9
2023-01-21T00:04:41.698Z,21.8
2023-01-21T00:05:44.192Z,21.8
2023-01-21T00:06:46.719Z,21.8
2023-01-21T00:07:49.215Z,21.9
2023-01-21T00:08:51.733Z,21.8
2023-01-21T00:09:54.238Z,21.8
2023-01-21T00:10:56.739Z,21.9
2023-01-21T00:11:59.232Z,21.8
2023-01-21T00:13:01.454Z,21.9
2023-01-21T00:14:03.943Z,22
2023-01-21T00:15:06.301Z,21.8
2023-01-21T00:16:08.274Z,22
2023-01-21T00:17:11.021Z,22
2023-01-21T00:18:13.254Z,21.9
2023-01-21T00:19:15.969Z,21.9
2023-01-21T00:20:18.003Z,22
2023-01-21T00:21:21.165Z,22
2023-01-21T00:22:23.386Z,22
2023-01-21T00:23:25.917Z,22
2023-01-21T00:24:27.942Z,21.8
2023-01-21T00:25:30.461Z,22
2023-01-21T00:26:32.451Z,21.9
2023-01-21T00:27:34.681Z,22
2023-01-21T00:28:36.895Z,22.1
2023-01-21T00:29:39.103Z,21.9
2023-01-21T00:30:41.699Z,21.9
2023-01-21T00:31:44.863Z,22
2023-01-21T00:32:47.866Z,22
2023-01-21T00:33:50.113Z,22
2023-01-21T00:34:52.750Z,22.2
2023-01-21T00:35:55.277Z,22
2023-01-21T00:36:57.795Z,22
2023-01-21T00:38:00.045Z,22
2023-01-21T00:39:02.542Z,22
2023-01-21T00:40:05.081Z,22.1
2023-01-21T00:41:07.334Z,22.1
2023-01-21T00:42:09.406Z,22
2023-01-21T00:43:11.629Z,22
2023-01-21T00:44:14.125Z,22
2023-01-21T00:45:16.620Z,22.1
2023-01-21T00:46:19.158Z,22.1
2023-01-21T00:47:22.128Z,22.1
2023-01-21T00:48:24.637Z,22
2023-01-21T00:49:26.887Z,22.1
2023-01-21T00:50:29.483Z,22.1
2023-01-21T00:51:31.440Z,22
2023-01-21T00:52:33.966Z,22.1
2023-01-21T00:53:36.220Z,22
2023-01-21T00:54:38.782Z,22.1
2023-01-21T00:55:41.304Z,22.1
2023-01-21T00:56:44.099Z,22
2023-01-21T00:57:47.244Z,22.1
2023-01-21T00:58:50.347Z,22.1
2023-01-21T00:59:53.210Z,22.1
2023-01-21T01:00:55.156Z,22.1
2023-01-21T01:01:57.380Z,22.2
2023-01-21T01:02:59.074Z,22.1
2023-01-21T01:04:01.716Z,22.2
2023-01-21T01:05:04.247Z,22.3
2023-01-21T01:06:06.554Z,22.2
2023-01-21T01:07:08.849Z,22.2
2023-01-21T01:08:11.072Z,22.3
2023-01-21T01:09:12.760Z,22.3
2023-01-21T01:10:15.542Z,22.3
2023-01-21T01:11:19.063Z,22.2
2023-01-21T01:12:21.039Z,22.2
2023-01-21T01:13:23.303Z,22.4
2023-01-21T01:14:25.839Z,22.2
2023-01-21T01:15:28.103Z,22.2
2023-01-21T01:16:30.610Z,22.2
2023-01-21T01:17:33.202Z,22.2
2023-01-21T01:18:35.689Z,22.2
2023-01-21T01:19:38.219Z,22.1
2023-01-21T01:20:40.452Z,22.1
2023-01-21T01:21:43.063Z,22.2
2023-01-21T01:22:45.004Z,22.2
2023-01-21T01:23:46.951Z,22.2
2023-01-21T01:24:49.439Z,22.1
2023-01-21T01:25:51.942Z,22.2
2023-01-21T01:26:54.484Z,22.1
2023-01-21T01:27:56.976Z,22.2
2023-01-21T01:28:59.473Z,22.1
2023-01-21T01:30:01.974Z,22.3
2023-01-21T01:31:04.626Z,22.3
2023-01-21T01:32:07.480Z,22.2
2023-01-21T01:33:09.705Z,22.2
2023-01-21T01:34:11.920Z,22.4
2023-01-21T01:35:14.447Z,22.2
2023-01-21T01:36:16.955Z,22.3
2023-01-21T01:37:19.852Z,22.3
2023-01-21T01:38:22.352Z,22.2
2023-01-21T01:39:24.915Z,22.2
2023-01-21T01:40:27.112Z,22.2
2023-01-21T01:41:29.322Z,22.3
2023-01-21T01:42:31.897Z,22.2
2023-01-21T01:43:34.399Z,22.1
2023-01-21T01:44:36.888Z,22.3
2023-01-21T01:45:39.396Z,22.3
2023-01-21T01:46:41.625Z,22.2
2023-01-21T01:47:44.513Z,22.3
2023-01-21T01:48:46.731Z,22.2
2023-01-21T01:49:48.959Z,22.3
2023-01-21T01:50:51.192Z,22.2
2023-01-21T01:51:54.054Z,22.2
2023-01-21T01:52:56.694Z,22.2
2023-01-21T01:53:59.194Z,22.2
2023-01-21T01:55:01.161Z,22.4
2023-01-21T01:56:03.695Z,22.4
2023-01-21T01:57:05.920Z,22.3
2023-01-21T01:58:07.905Z,22.3
2023-01-21T01:59:10.429Z,22.3
2023-01-21T02:00:12.955Z,22.5
2023-01-21T02:01:17.041Z,22.2
2023-01-21T02:02:19.458Z,22.2
2023-01-21T02:03:22.046Z,22.2
2023-01-21T02:04:24.557Z,22.3
2023-01-21T02:05:27.053Z,22.3
2023-01-21T02:06:29.290Z,22.3
2023-01-21T02:07:31.513Z,22.3
2023-01-21T02:08:34.157Z,22.3
2023-01-21T02:09:36.613Z,22.3
2023-01-21T02:10:39.131Z,22.3
2023-01-21T02:11:41.351Z,22.3
2023-01-21T02:12:43.323Z,22.3
2023-01-21T02:13:45.936Z,22.2
2023-01-21T02:14:48.512Z,22.3
2023-01-21T02:15:50.749Z,22.4
2023-01-21T02:16:53.516Z,22.3
2023-01-21T02:17:56.030Z,22.3
2023-01-21T02:18:58.588Z,22.4
2023-01-21T02:20:01.125Z,22.4
2023-01-21T02:21:03.384Z,22.3
2023-01-21T02:22:05.912Z,22.3
2023-01-21T02:23:08.140Z,22.5
2023-01-21T02:24:10.810Z,22.2
2023-01-21T02:25:13.312Z,22.2
2023-01-21T02:26:15.545Z,22.3
2023-01-21T02:27:18.049Z,22.2
2023-01-21T02:28:24.597Z,22.4
2023-01-21T02:29:27.126Z,22.3
2023-01-21T02:30:29.627Z,22.3
2023-01-21T02:31:32.425Z,22.3
2023-01-21T02:32:34.544Z,22.4
2023-01-21T02:33:36.782Z,22.2
2023-01-21T02:34:39.310Z,22.3
2023-01-21T02:35:41.822Z,22.2
2023-01-21T02:36:44.052Z,22.3
2023-01-21T02:37:45.999Z,22.3
2023-01-21T02:38:48.502Z,22.2
2023-01-21T02:39:50.819Z,22.2
2023-01-21T02:40:53.352Z,22.3
2023-01-21T02:41:55.841Z,22.4
2023-01-21T02:42:57.864Z,22.3
2023-01-21T02:44:00.394Z,22.3
2023-01-21T02:45:02.639Z,22.4
2023-01-21T02:46:05.138Z,22.3
2023-01-21T02:47:07.621Z,22.3
2023-01-21T02:48:10.121Z,22.4
2023-01-21T02:49:12.352Z,22.3
2023-01-21T02:50:15.004Z,22.3
2023-01-21T02:51:19.204Z,22.3
2023-01-21T02:52:21.742Z,22.3
2023-01-21T02:53:23.692Z,22.3
2023-01-21T02:54:25.948Z,22.2
2023-01-21T02:55:28.568Z,22.2
2023-01-21T02:56:31.086Z,22.3
2023-01-21T02:57:33.301Z,22.3
2023-01-21T02:58:35.526Z,22.2
2023-01-21T02:59:37.504Z,22.2
2023-01-21T03:00:40.076Z,22.3
2023-01-21T03:01:42.929Z,22.3
2023-01-21T03:02:45.498Z,22.2
2023-01-21T03:03:47.720Z,22.2
2023-01-21T03:04:50.233Z,22.3
2023-01-21T03:05:52.713Z,22.3
2023-01-21T03:06:54.949Z,22.4
2023-01-21T03:07:57.482Z,22.3
2023-01-21T03:08:59.739Z,22.3
2023-01-21T03:10:01.669Z,22.5
2023-01-21T03:11:04.274Z,22.3
2023-01-21T03:12:06.963Z,22.4
2023-01-21T03:13:08.652Z,22.4
2023-01-21T03:14:11.161Z,22.4
2023-01-21T03:15:13.386Z,22.3
2023-01-21T03:16:15.099Z,22.4
2023-01-21T03:17:17.771Z,22.3
2023-01-21T03:18:20.298Z,22.5
2023-01-21T03:19:22.814Z,22.3
2023-01-21T03:20:24.784Z,22.2
2023-01-21T03:21:27.282Z,22.3
2023-01-21T03:22:29.801Z,22.2
2023-01-21T03:23:32.286Z,22.4
2023-01-21T03:24:34.774Z,22.2
2023-01-21T03:25:37.285Z,22.4
2023-01-21T03:26:39.915Z,22.3
2023-01-21T03:27:42.212Z,22.3
2023-01-21T03:28:44.474Z,22.3
2023-01-21T03:29:47.004Z,22.3
2023-01-21T03:30:49.538Z,22.3
2023-01-21T03:31:52.311Z,22.3
2023-01-21T03:32:55.213Z,22.4
2023-01-21T03:33:56.634Z,22.3
2023-01-21T03:34:58.872Z,22.6
2023-01-21T03:36:01.362Z,22.3
2023-01-21T03:37:03.605Z,22.3
2023-01-21T03:38:06.157Z,22.3
2023-01-21T03:39:08.647Z,22.4
2023-01-21T03:40:11.138Z,22.3
2023-01-21T03:41:13.649Z,22.3
2023-01-21T03:42:16.281Z,22.3
2023-01-21T03:43:18.787Z,22.3
2023-01-21T03:44:21.301Z,22.4
2023-01-21T03:45:23.865Z,22.3
2023-01-21T03:46:26.349Z,22.3
2023-01-21T03:47:28.354Z,22.3
2023-01-21T03:48:30.576Z,22.3
2023-01-21T03:49:33.119Z,22.3
2023-01-21T03:50:35.395Z,22.4
2023-01-21T03:51:37.618Z,22.3
2023-01-21T03:52:39.828Z,22.4
2023-01-21T03:53:42.348Z,22.4
2023-01-21T03:54:44.900Z,22.4
2023-01-21T03:55:47.398Z,22.2
2023-01-21T03:56:49.605Z,22.5
2023-01-21T03:57:52.300Z,22.4
2023-01-21T03:58:54.508Z,22.3
2023-01-21T03:59:56.765Z,22.5
2023-01-21T04:00:59.410Z,22.3
2023-01-21T04:02:02.353Z,22.4
2023-01-21T04:03:04.826Z,22.5
2023-01-21T04:04:07.312Z,22.3
2023-01-21T04:05:09.569Z,22.3
2023-01-21T04:06:11.564Z,22.5
2023-01-21T04:07:13.796Z,22.3
2023-01-21T04:08:16.010Z,22.2
2023-01-21T04:09:18.228Z,22.3
2023-01-21T04:10:20.459Z,22.3
2023-01-21T04:11:22.977Z,22.3
2023-01-21T04:12:25.207Z,22.4
2023-01-21T04:13:27.835Z,22.5
2023-01-21T04:14:30.046Z,22.3
2023-01-21T04:15:32.313Z,22.2
2023-01-21T04:16:34.895Z,22.3
2023-01-21T04:17:37.621Z,22.3
2023-01-21T04:18:39.883Z,22.3
2023-01-21T04:19:42.109Z,22.3
2023-01-21T04:20:44.690Z,22.4
2023-01-21T04:21:46.674Z,22.3
2023-01-21T04:22:48.979Z,22.2
2023-01-21T04:23:51.486Z,22.3
2023-01-21T04:24:53.989Z,22.4
2023-01-21T04:25:56.483Z,22.3
2023-01-21T04:26:58.988Z,22.4
2023-01-21T04:28:01.613Z,22.3
2023-01-21T04:29:04.236Z,22.2
2023-01-21T04:30:06.782Z,22.4
2023-01-21T04:31:09.442Z,22.4
2023-01-21T04:32:11.797Z,22.1
2023-01-21T04:33:14.300Z,22.2
2023-01-21T04:34:17.084Z,22.2
2023-01-21T04:35:19.616Z,22.2
2023-01-21T04:36:21.857Z,22.1
2023-01-21T04:37:24.412Z,22.2
2023-01-21T04:38:27.166Z,22.2
2023-01-21T04:39:29.690Z,22.2
2023-01-21T04:40:32.193Z,22.2
2023-01-21T04:41:34.671Z,22.2
2023-01-21T04:42:37.153Z,22.2
2023-01-21T04:43:39.706Z,22.1
2023-01-21T04:44:42.339Z,22.1
2023-01-21T04:45:44.898Z,22.1
2023-01-21T04:46:47.543Z,22.2
2023-01-21T04:47:50.035Z,22.2
2023-01-21T04:48:52.271Z,22.2
2023-01-21T04:49:54.904Z,22.2
2023-01-21T04:50:57.443Z,22
2023-01-21T04:52:00.091Z,22.2
2023-01-21T04:53:02.597Z,22.2
2023-01-21T04:54:04.819Z,22.2
2023-01-21T04:55:07.058Z,22.1
2023-01-21T04:56:09.605Z,22.2
2023-01-21T04:57:12.114Z,22.2
2023-01-21T04:58:14.417Z,22.2
2023-01-21T04:59:16.622Z,22
2023-01-21T05:00:19.391Z,22.1
2023-01-21T05:01:21.644Z,22.1
2023-01-21T05:02:24.457Z,22.2
2023-01-21T05:03:27.265Z,22.1
2023-01-21T05:04:29.516Z,22.1
2023-01-21T05:05:31.811Z,22.1
2023-01-21T05:06:34.054Z,22.2
2023-01-21T05:07:36.565Z,22.1
2023-01-21T05:08:39.113Z,22.1
2023-01-21T05:09:41.365Z,22.1
2023-01-21T05:10:43.899Z,22.1
2023-01-21T05:11:46.373Z,22
2023-01-21T05:12:48.915Z,22.1
2023-01-21T05:13:51.409Z,21.9
2023-01-21T05:14:53.703Z,22.1
2023-01-21T05:15:56.491Z,22
2023-01-21T05:16:59.040Z,22
2023-01-21T05:18:01.897Z,22
2023-01-21T05:19:04.410Z,22
2023-01-21T05:20:06.336Z,22.1
2023-01-21T05:21:08.590Z,22
2023-01-21T05:22:10.850Z,22
2023-01-21T05:23:13.381Z,22.1
2023-01-21T05:24:15.886Z,22.1
2023-01-21T05:25:18.380Z,22
2023-01-21T05:26:20.736Z,22
2023-01-21T05:27:23.415Z,22
2023-01-21T05:28:25.459Z,22.1
2023-01-21T05:29:27.785Z,22.1
2023-01-21T05:30:30.413Z,22.1
2023-01-21T05:31:33.365Z,22
2023-01-21T05:32:36.524Z,22
2023-01-21T05:33:38.744Z,22
2023-01-21T05:34:41.295Z,22
2023-01-21T05:35:43.609Z,22
2023-01-21T05:36:46.177Z,21.9
2023-01-21T05:37:48.432Z,22
2023-01-21T05:38:51.241Z,22
2023-01-21T05:39:53.738Z,22
2023-01-21T05:40:56.244Z,22
2023-01-21T05:41:58.767Z,22
2023-01-21T05:43:01.296Z,22
2023-01-21T05:44:03.285Z,21.9
2023-01-21T05:45:05.293Z,22
2023-01-21T05:46:07.562Z,21.9
2023-01-21T05:47:10.679Z,22
2023-01-21T05:48:13.201Z,22.1
2023-01-21T05:49:15.691Z,21.9
2023-01-21T05:50:18.349Z,21.9
2023-01-21T05:51:21.398Z,22
2023-01-21T05:52:24.237Z,21.9
2023-01-21T05:53:26.499Z,22.1
2023-01-21T05:54:28.739Z,21.8
2023-01-21T05:55:31.327Z,21.9
2023-01-21T05:56:33.827Z,22
2023-01-21T05:57:36.345Z,22
2023-01-21T05:58:38.567Z,22.1
2023-01-21T05:59:41.085Z,21.9
2023-01-21T06:00:43.305Z,21.9
2023-01-21T06:01:45.796Z,21.9
2023-01-21T06:02:48.413Z,21.9
2023-01-21T06:03:51.005Z,21.8
2023-01-21T06:04:53.263Z,22
2023-01-21T06:05:55.549Z,22
2023-01-21T06:06:57.749Z,21.9
2023-01-21T06:08:00.296Z,21.9
2023-01-21T06:09:02.858Z,22
2023-01-21T06:10:05.113Z,22
2023-01-21T06:11:07.354Z,21.8
2023-01-21T06:12:09.854Z,21.9
2023-01-21T06:13:11.796Z,21.9
2023-01-21T06:14:14.019Z,21.8
2023-01-21T06:15:16.540Z,22
2023-01-21T06:16:18.755Z,21.9
2023-01-21T06:17:21.282Z,21.8
2023-01-21T06:18:23.893Z,21.8
2023-01-21T06:19:26.435Z,21.8
2023-01-21T06:20:28.937Z,21.9
2023-01-21T06:21:31.243Z,21.9
2023-01-21T06:22:33.752Z,21.8
2023-01-21T06:23:36.263Z,22
2023-01-21T06:24:38.746Z,21.9
2023-01-21T06:25:40.966Z,21.8
2023-01-21T06:26:42.901Z,21.8
2023-01-21T06:27:45.417Z,21.8
2023-01-21T06:28:48.068Z,21.9
2023-01-21T06:29:50.561Z,21.7
2023-01-21T06:30:53.162Z,21.8
2023-01-21T06:31:56.301Z,21.9
2023-01-21T06:32:59.426Z,22
2023-01-21T06:34:01.882Z,21.9
2023-01-21T06:35:04.381Z,21.9
2023-01-21T06:36:06.655Z,21.9
2023-01-21T06:37:08.877Z,21.8
2023-01-21T06:38:11.384Z,21.9
2023-01-21T06:39:14.043Z,22.1
2023-01-21T06:40:16.372Z,22.1
2023-01-21T06:41:20.758Z,21.9
2023-01-21T06:42:23.251Z,21.9
2023-01-21T06:43:25.787Z,21.9
2023-01-21T06:44:28.044Z,21.9
2023-01-21T06:45:30.276Z,22
2023-01-21T06:46:32.530Z,21.9
2023-01-21T06:47:35.411Z,21.9
2023-01-21T06:48:37.630Z,22.1
2023-01-21T06:49:40.405Z,21.9
2023-01-21T06:50:42.922Z,22.2
2023-01-21T06:51:45.317Z,21.8
2023-01-21T06:52:47.845Z,21.9
2023-01-21T06:53:50.082Z,21.9
2023-01-21T06:54:52.693Z,22
2023-01-21T06:55:55.267Z,22
2023-01-21T06:56:57.765Z,22
2023-01-21T06:57:59.998Z,21.9
2023-01-21T06:59:02.542Z,21.8
2023-01-21T07:00:04.464Z,21.8
2023-01-21T07:01:07.270Z,22
2023-01-21T07:02:09.799Z,21.8
2023-01-21T07:03:12.293Z,21.7
2023-01-21T07:04:14.836Z,21.8
2023-01-21T07:05:17.759Z,21.8
2023-01-21T07:06:20.770Z,21.9
2023-01-21T07:07:23.026Z,21.8
2023-01-21T07:08:25.517Z,21.9
2023-01-21T07:09:28.036Z,21.8
2023-01-21T07:10:30.580Z,21.7
2023-01-21T07:11:33.097Z,21.8
2023-01-21T07:12:35.601Z,21.9
2023-01-21T07:13:38.151Z,21.8
2023-01-21T07:14:40.695Z,21.8
2023-01-21T07:15:43.222Z,21.9
2023-01-21T07:16:45.667Z,21.8
2023-01-21T07:17:48.208Z,21.7
2023-01-21T07:18:50.759Z,22
2023-01-21T07:19:53.048Z,21.9
2023-01-21T07:20:55.681Z,21.9
2023-01-21T07:21:57.652Z,21.7
2023-01-21T07:22:59.605Z,21.9
2023-01-21T07:24:01.849Z,21.7
2023-01-21T07:25:04.118Z,21.9
2023-01-21T07:26:06.663Z,21.8
2023-01-21T07:27:08.880Z,21.8
2023-01-21T07:28:11.457Z,21.7
2023-01-21T07:29:13.951Z,21.9
2023-01-21T07:30:16.843Z,21.6
2023-01-21T07:31:20.332Z,21.9
2023-01-21T07:32:23.648Z,21.7
2023-01-21T07:33:26.170Z,21.7
2023-01-21T07:34:28.432Z,21.7
2023-01-21T07:35:30.709Z,21.9
2023-01-21T07:36:33.338Z,21.7
2023-01-21T07:37:35.299Z,21.8
2023-01-21T07:38:37.813Z,21.7
2023-01-21T07:39:39.772Z,21.9
2023-01-21T07:40:42.284Z,21.8
2023-01-21T07:41:44.268Z,21.8
2023-01-21T07:42:46.531Z,21.8
2023-01-21T07:43:48.756Z,21.7
2023-01-21T07:44:51.260Z,21.8
2023-01-21T07:45:53.509Z,21.7
2023-01-21T07:46:56.047Z,21.7
2023-01-21T07:47:58.271Z,21.7
2023-01-21T07:49:00.536Z,21.5
2023-01-21T07:50:03.102Z,21.8
2023-01-21T07:51:05.734Z,21.7
2023-01-21T07:52:08.675Z,21.8
2023-01-21T07:53:11.210Z,21.7
2023-01-21T07:54:13.476Z,21.7
2023-01-21T07:55:15.773Z,21.6
2023-01-21T07:56:20.422Z,21.9
2023-01-21T07:57:23.010Z,21.8
2023-01-21T07:58:25.580Z,21.7
2023-01-21T07:59:27.868Z,21.7
2023-01-21T08:00:30.435Z,21.7
2023-01-21T08:01:32.135Z,21.7
2023-01-21T08:02:35.096Z,21.7
2023-01-21T08:03:38.264Z,21.8
2023-01-21T08:04:40.520Z,21.8
2023-01-21T08:05:42.783Z,21.7
2023-01-21T08:06:45.340Z,21.8
2023-01-21T08:07:48.060Z,21.6
2023-01-21T08:08:50.615Z,21.7
2023-01-21T08:09:52.834Z,21.7
2023-01-21T08:10:55.139Z,21.8
2023-01-21T08:11:57.617Z,21.9
2023-01-21T08:12:59.882Z,21.7
2023-01-21T08:14:02.494Z,21.8
2023-01-21T08:15:05.063Z,21.8
2023-01-21T08:16:07.628Z,21.7
2023-01-21T08:17:10.318Z,21.6
2023-01-21T08:18:12.847Z,21.7
2023-01-21T08:19:15.375Z,21.8
2023-01-21T08:20:17.972Z,21.7
2023-01-21T08:21:20.550Z,21.7
2023-01-21T08:22:22.826Z,21.8
2023-01-21T08:23:25.309Z,21.8
2023-01-21T08:24:27.940Z,21.8
2023-01-21T08:25:30.561Z,21.6
2023-01-21T08:26:32.780Z,21.7
2023-01-21T08:27:35.050Z,21.8
2023-01-21T08:28:37.608Z,21.6
2023-01-21T08:29:39.864Z,21.8
2023-01-21T08:30:42.097Z,21.9
2023-01-21T08:31:44.333Z,21.7
2023-01-21T08:32:47.292Z,21.7
2023-01-21T08:33:49.807Z,21.7
2023-01-21T08:34:52.328Z,21.8
2023-01-21T08:35:54.878Z,21.7
2023-01-21T08:36:56.805Z,21.9
2023-01-21T08:37:59.316Z,21.8
2023-01-21T08:39:02.248Z,21.8
2023-01-21T08:40:04.217Z,21.8
2023-01-21T08:41:06.728Z,21.8
2023-01-21T08:42:08.957Z,21.7
2023-01-21T08:43:11.218Z,21.7
2023-01-21T08:44:13.779Z,21.8
2023-01-21T08:45:16.780Z,21.7
2023-01-21T08:46:20.990Z,21.7
2023-01-21T08:47:23.263Z,21.9
2023-01-21T08:48:25.685Z,21.7
2023-01-21T08:49:28.025Z,21.6
2023-01-21T08:50:31.413Z,21.8
2023-01-21T08:51:33.964Z,21.9
2023-01-21T08:52:36.216Z,21.7
2023-01-21T08:53:38.720Z,21.7
2023-01-21T08:54:41.362Z,21.6
2023-01-21T08:55:43.607Z,21.8
2023-01-21T08:56:45.859Z,21.8
2023-01-21T08:57:48.113Z,21.6
2023-01-21T08:58:50.081Z,21.6
2023-01-21T08:59:52.342Z,21.8
2023-01-21T09:00:54.900Z,21.7
2023-01-21T09:01:57.752Z,21.8
2023-01-21T09:03:00.511Z,21.7
2023-01-21T09:04:03.106Z,21.7
2023-01-21T09:05:05.091Z,21.6
2023-01-21T09:06:07.315Z,21.7
2023-01-21T09:07:09.846Z,21.8
2023-01-21T09:08:12.377Z,21.7
2023-01-21T09:09:14.355Z,21.7
2023-01-21T09:10:16.943Z,21.7
2023-01-21T09:11:18.881Z,21.7
2023-01-21T09:12:21.106Z,21.6
2023-01-21T09:13:23.639Z,21.6
2023-01-21T09:14:31.931Z,21.8
2023-01-21T09:15:34.461Z,21.6
2023-01-21T09:16:37.135Z,21.7
2023-01-21T09:17:40.144Z,21.7
2023-01-21T09:18:42.671Z,21.7
2023-01-21T09:19:45.174Z,21.7
2023-01-21T09:20:47.681Z,21.7
2023-01-21T09:21:50.179Z,21.7
2023-01-21T09:22:52.692Z,21.7
2023-01-21T09:23:55.202Z,21.8
2023-01-21T09:24:57.159Z,21.7
2023-01-21T09:25:59.751Z,21.8
2023-01-21T09:27:02.287Z,21.7
2023-01-21T09:28:04.484Z,21.6
2023-01-21T09:29:06.736Z,21.8
2023-01-21T09:30:09.464Z,21.7
2023-01-21T09:31:11.714Z,21.7
2023-01-21T09:32:14.220Z,21.7
2023-01-21T09:33:16.729Z,21.7
2023-01-21T09:34:19.237Z,21.7
2023-01-21T09:35:21.459Z,21.6
2023-01-21T09:36:23.970Z,21.7
2023-01-21T09:37:26.473Z,21.6
2023-01-21T09:38:28.974Z,21.7
2023-01-21T09:39:31.519Z,21.8
2023-01-21T09:40:34.148Z,21.8
2023-01-21T09:41:36.776Z,21.8
2023-01-21T09:42:38.996Z,21.7
2023-01-21T09:43:41.527Z,21.8
2023-01-21T09:44:44.128Z,21.9
2023-01-21T09:45:46.478Z,21.7
2023-01-21T09:46:49.271Z,21.7
2023-01-21T09:47:51.814Z,21.8
2023-01-21T09:48:54.038Z,21.8
2023-01-21T09:49:56.547Z,21.8
2023-01-21T09:50:59.069Z,21.7
2023-01-21T09:52:01.962Z,21.7
2023-01-21T09:53:04.185Z,21.7
2023-01-21T09:54:06.690Z,21.7
2023-01-21T09:55:09.195Z,21.7
2023-01-21T09:56:11.723Z,21.7
2023-01-21T09:57:14.331Z,21.8
2023-01-21T09:58:16.859Z,21.7
2023-01-21T09:59:21.024Z,21.7
2023-01-21T10:00:23.339Z,21.6
2023-01-21T10:01:25.452Z,21.6
2023-01-21T10:02:28.357Z,21.6
2023-01-21T10:03:30.644Z,21.6
2023-01-21T10:04:33.201Z,21.8
2023-01-21T10:05:35.885Z,21.6
2023-01-21T10:06:37.842Z,21.6
2023-01-21T10:07:40.359Z,21.7
2023-01-21T10:08:42.878Z,21.6
2023-01-21T10:09:45.141Z,21.6
2023-01-21T10:10:47.661Z,21.7
2023-01-21T10:11:49.889Z,21.7
2023-01-21T10:12:52.525Z,21.7
2023-01-21T10:13:54.724Z,21.7
2023-01-21T10:14:56.977Z,21.7
2023-01-21T10:15:59.246Z,21.8
2023-01-21T10:17:01.534Z,21.6
2023-01-21T10:18:04.091Z,21.7
2023-01-21T10:19:06.628Z,21.8
2023-01-21T10:20:09.118Z,21.5
2023-01-21T10:21:11.393Z,21.8
2023-01-21T10:22:13.905Z,21.6
2023-01-21T10:23:15.871Z,21.7
2023-01-21T10:24:18.387Z,21.7
2023-01-21T10:25:20.892Z,21.7
2023-01-21T10:26:23.446Z,21.9
2023-01-21T10:27:25.481Z,21.7
2023-01-21T10:28:28.079Z,21.7
2023-01-21T10:29:30.591Z,21.8
2023-01-21T10:30:33.284Z,21.8
2023-01-21T10:31:36.414Z,21.8
2023-01-21T10:32:39.758Z,21.6
2023-01-21T10:33:41.511Z,21.8
2023-01-21T10:34:44.037Z,21.8
2023-01-21T10:35:46.550Z,21.8
2023-01-21T10:36:48.777Z,21.8
2023-01-21T10:37:51.316Z,21.8
2023-01-21T10:38:53.552Z,21.7
2023-01-21T10:39:56.083Z,21.6
2023-01-21T10:40:58.580Z,21.8
2023-01-21T10:42:01.124Z,21.8
2023-01-21T10:43:03.349Z,21.7
2023-01-21T10:44:05.985Z,21.8
2023-01-21T10:45:08.297Z,21.8
2023-01-21T10:46:10.591Z,21.7
2023-01-21T10:47:13.466Z,21.7
2023-01-21T10:48:15.966Z,21.8
2023-01-21T10:49:18.225Z,21.6
2023-01-21T10:50:20.434Z,21.8
2023-01-21T10:51:22.414Z,21.7
2023-01-21T10:52:24.272Z,21.7
2023-01-21T10:53:26.761Z,21.9
2023-01-21T10:54:28.975Z,21.8
2023-01-21T10:55:31.198Z,21.7
2023-01-21T10:56:33.721Z,21.7
2023-01-21T10:57:35.963Z,21.8
2023-01-21T10:58:38.491Z,21.8
2023-01-21T10:59:40.848Z,21.6
2023-01-21T11:00:42.853Z,21.9
2023-01-21T11:01:45.160Z,21.8
2023-01-21T11:02:47.457Z,21.7
2023-01-21T11:03:49.460Z,21.8
2023-01-21T11:04:51.987Z,21.9
2023-01-21T11:05:54.526Z,21.7
2023-01-21T11:06:56.455Z,21.7
2023-01-21T11:07:59.722Z,21.7
2023-01-21T11:09:01.751Z,21.7
2023-01-21T11:10:04.847Z,21.8
2023-01-21T11:11:07.807Z,21.7
2023-01-21T11:12:10.385Z,21.7
2023-01-21T11:13:12.927Z,21.7
2023-01-21T11:14:15.422Z,21.6
2023-01-21T11:15:22.399Z,21.8
2023-01-21T11:16:24.717Z,21.9
2023-01-21T11:17:27.223Z,21.6
2023-01-21T11:18:29.749Z,21.7
2023-01-21T11:19:31.491Z,21.6
2023-01-21T11:20:34.022Z,21.7
2023-01-21T11:21:36.576Z,21.6
2023-01-21T11:22:39.103Z,21.7
2023-01-21T11:23:41.332Z,21.7
2023-01-21T11:24:43.605Z,21.7
2023-01-21T11:25:45.562Z,21.7
2023-01-21T11:26:48.072Z,21.7
2023-01-21T11:27:50.600Z,21.7
2023-01-21T11:28:53.124Z,21.7
2023-01-21T11:29:55.054Z,21.7
2023-01-21T11:30:57.876Z,21.8
2023-01-21T11:32:01.386Z,21.7
2023-01-21T11:33:04.415Z,21.6
2023-01-21T11:34:06.652Z,21.7
2023-01-21T11:35:10.483Z,21.7
2023-01-21T11:36:12.849Z,21.7
2023-01-21T11:37:15.351Z,21.7
2023-01-21T11:38:17.591Z,21.8
2023-01-21T11:39:19.814Z,21.7
2023-01-21T11:40:22.549Z,21.8
2023-01-21T11:41:26.591Z,21.6
2023-01-21T11:42:29.081Z,21.8
2023-01-21T11:43:31.312Z,21.7
2023-01-21T11:44:33.539Z,21.7
2023-01-21T11:45:36.063Z,21.7
2023-01-21T11:46:38.464Z,21.7
2023-01-21T11:47:41.013Z,21.7
2023-01-21T11:48:43.591Z,21.7
2023-01-21T11:49:45.543Z,21.7
2023-01-21T11:50:47.830Z,21.7
2023-01-21T11:51:50.678Z,21.7
2023-01-21T11:52:53.205Z,21.7
2023-01-21T11:53:55.705Z,21.5
2023-01-21T11:54:58.207Z,21.6
2023-01-21T11:56:00.506Z,21.7
2023-01-21T11:57:03.064Z,21.6
2023-01-21T11:58:05.386Z,21.6
2023-01-21T11:59:07.901Z,21.7
2023-01-21T12:00:09.892Z,21.7
2023-01-21T12:01:12.124Z,21.8
2023-01-21T12:02:14.753Z,21.9
2023-01-21T12:03:17.288Z,21.7
2023-01-21T12:04:19.807Z,21.7
2023-01-21T12:05:22.027Z,21.7
2023-01-21T12:06:24.518Z,21.8
2023-01-21T12:07:27.087Z,21.6
2023-01-21T12:08:29.583Z,21.7
2023-01-21T12:09:31.804Z,21.5
2023-01-21T12:10:34.345Z,21.6
2023-01-21T12:11:36.849Z,21.7
2023-01-21T12:12:39.100Z,21.7
2023-01-21T12:13:41.338Z,21.7
2023-01-21T12:14:43.851Z,21.6
2023-01-21T12:15:46.445Z,21.6
2023-01-21T12:16:49.166Z,21.7
2023-01-21T12:17:51.781Z,21.8
2023-01-21T12:18:54.331Z,21.7
2023-01-21T12:19:56.302Z,21.7
2023-01-21T12:20:58.944Z,21.8
2023-01-21T12:22:01.245Z,21.6
2023-01-21T12:23:03.864Z,21.7
2023-01-21T12:24:06.136Z,21.6
2023-01-21T12:25:08.457Z,21.8
2023-01-21T12:26:11.051Z,21.9
2023-01-21T12:27:13.627Z,21.8
2023-01-21T12:28:15.864Z,21.8
2023-01-21T12:29:19.434Z,21.8
2023-01-21T12:30:22.934Z,21.8
2023-01-21T12:31:25.587Z,21.8
2023-01-21T12:32:28.435Z,21.6
2023-01-21T12:33:31.036Z,21.8
2023-01-21T12:34:33.381Z,21.8
2023-01-21T12:35:35.603Z,21.7
2023-01-21T12:36:38.117Z,21.8
2023-01-21T12:37:40.665Z,21.7
2023-01-21T12:38:42.937Z,21.7
2023-01-21T12:39:45.144Z,21.8
2023-01-21T12:40:47.651Z,21.7
2023-01-21T12:41:49.629Z,21.7
2023-01-21T12:42:52.135Z,21.8
2023-01-21T12:43:54.257Z,21.6
2023-01-21T12:44:56.784Z,21.7
2023-01-21T12:45:58.711Z,21.8
2023-01-21T12:47:00.982Z,21.8
2023-01-21T12:48:03.382Z,21.7
2023-01-21T12:49:05.954Z,21.6
2023-01-21T12:50:08.533Z,21.5
2023-01-21T12:51:11.383Z,21.7
2023-01-21T12:52:13.848Z,21.6
2023-01-21T12:53:16.089Z,21.7
2023-01-21T12:54:17.789Z,21.6
2023-01-21T12:55:20.540Z,21.7
2023-01-21T12:56:23.254Z,21.6
2023-01-21T12:57:25.848Z,21.7
2023-01-21T12:58:28.100Z,21.8
2023-01-21T12:59:31.595Z,21.8
2023-01-21T13:00:33.950Z,21.7
2023-01-21T13:01:36.482Z,21.7
2023-01-21T13:02:39.105Z,21.8
2023-01-21T13:03:41.079Z,21.7
2023-01-21T13:04:43.665Z,21.7
2023-01-21T13:05:46.198Z,21.7
2023-01-21T13:06:54.070Z,21.7
2023-01-21T13:07:53.697Z,21.6
2023-01-21T13:08:55.936Z,21.7
2023-01-21T13:09:58.492Z,21.7
2023-01-21T13:11:00.725Z,21.7
2023-01-21T13:12:02.732Z,21.7
2023-01-21T13:13:04.990Z,21.7
2023-01-21T13:14:07.496Z,21.7
2023-01-21T13:15:10.035Z,21.7
2023-01-21T13:16:12.634Z,21.7
2023-01-21T13:17:15.473Z,21.7
2023-01-21T13:18:18.016Z,21.7
2023-01-21T13:19:20.541Z,21.7
2023-01-21T13:20:22.854Z,21.6
2023-01-21T13:21:26.957Z,21.6
2023-01-21T13:22:30.165Z,21.8
2023-01-21T13:23:32.683Z,21.7
2023-01-21T13:24:34.962Z,21.6
2023-01-21T13:25:37.545Z,21.6
2023-01-21T13:26:40.156Z,21.5
2023-01-21T13:27:44.270Z,21.7
2023-01-21T13:28:46.678Z,21.7
2023-01-21T13:29:49.271Z,21.8
2023-01-21T13:30:51.960Z,21.7
2023-01-21T13:31:54.470Z,21.7
2023-01-21T13:32:57.243Z,21.8
2023-01-21T13:33:59.745Z,21.6
2023-01-21T13:35:01.740Z,21.8
2023-01-21T13:36:04.325Z,21.6
2023-01-21T13:37:06.598Z,21.6
2023-01-21T13:38:08.839Z,21.7
2023-01-21T13:39:10.504Z,21.6
2023-01-21T13:40:12.198Z,21.7
2023-01-21T13:41:14.792Z,21.6
2023-01-21T13:42:17.341Z,21.6
2023-01-21T13:43:20.032Z,21.7
2023-01-21T13:44:22.565Z,21.8
2023-01-21T13:45:25.115Z,21.7
2023-01-21T13:46:27.346Z,21.8
2023-01-21T13:47:29.907Z,21.7
2023-01-21T13:48:32.415Z,21.7
2023-01-21T13:49:34.629Z,21.8
2023-01-21T13:50:37.173Z,21.6
2023-01-21T13:51:39.469Z,21.7
2023-01-21T13:52:42.068Z,21.5
2023-01-21T13:53:44.578Z,21.7
2023-01-21T13:54:47.115Z,21.8
2023-01-21T13:55:49.190Z,21.6